Sigas Ingrid — VRCQ6 — position and weather

sailwx.info

Track history (hours):
 
Tides and Currents Weather Stations Pressure Air Temp Water Temp Dewpoint Dewpoint Depression Visibility Wind Speed Wind Dir Waves Ship Positions

Sigas Ingrid

Last reported at 2014-Sep-28 07:23 UTC. Time now 2014-Oct-01 22:29 UTC.
Position N 36°30' E 014°22'.

Length 100 m; draft 4.7 m.

Type: Ship (hazmat cat B). MMSI: 477658800.

Date/timePositionNaut miles runAvg speedWind from/ knotsBaromVisibWave heightAir tempDewpointWater temp
2014-Sep-28 07:23N 36°30' E 014°22'1112.8
2014-Sep-28 06:33N 36°34' E 014°09'1312.8
2014-Sep-28 05:33N 36°37' E 013°54'1412.3
2014-Sep-28 04:24N 36°42' E 013°37'  
2014-Sep-22 16:29N 36°47' E 010°28'60 4.8
2014-Sep-22 04:12N 37°20' E 011°31'1012.0
2014-Sep-22 03:20N 37°15' E 011°43'911.8
2014-Sep-22 02:33N 37°11' E 011°53'1111.6
2014-Sep-22 01:33N 37°06' E 012°06'1211.2
2014-Sep-22 00:32N 37°01' E 012°19'1110.8
2014-Sep-21 23:33N 36°55' E 012°30'1111.4
2014-Sep-21 22:33N 36°49' E 012°42'1211.6
2014-Sep-21 21:33N 36°45' E 012°56'1211.9
2014-Sep-21 20:33N 36°40' E 013°09'1211.8
2014-Sep-21 19:33N 36°35' E 013°23'1211.7
2014-Sep-21 18:33N 36°30' E 013°35'1111.2
2014-Sep-21 17:33N 36°27' E 013°49'1111.1
2014-Sep-21 16:33N 36°26' E 014°03'1110.9
2014-Sep-21 15:33N 36°27' E 014°16'1111.0
2014-Sep-21 14:33N 36°28' E 014°30'1111.3
2014-Sep-21 13:33N 36°27' E 014°44'1111.3
2014-Sep-21 12:33N 36°27' E 014°58'1211.5
2014-Sep-21 11:33N 36°26' E 015°12'41310.0
2014-Sep-19 18:25N 37°34' E 023°42'1011.8
2014-Sep-19 17:33N 37°44' E 023°39'1110.6
2014-Sep-19 16:33N 37°55' E 023°36'7 6.8
2014-Sep-19 15:33N 38°02' E 023°36'0 0.2
2014-Sep-19 14:25N 38°02' E 023°36'0 0.0
2014-Sep-19 13:22N 38°02' E 023°36'0 0.0
2014-Sep-19 12:28N 38°02' E 023°36'  
Track history (hours):
 
Tides and Currents Weather Stations Pressure Air Temp Water Temp Dewpoint Dewpoint Depression Visibility Wind Speed Wind Dir Waves Ship Positions

Sigas Ingrid

Last reported at 2014-Sep-28 07:23 UTC. Time now 2014-Oct-01 22:29 UTC.
Position N 36°30' E 014°22'.

Length 100 m; draft 4.7 m.

Type: Ship (hazmat cat B). MMSI: 477658800.

Date/timePositionNaut miles runAvg speedWind from/ knotsBaromVisibWave heightAir tempDewpointWater temp
2014-Sep-28 07:23N 36°30' E 014°22'1112.8
2014-Sep-28 06:33N 36°34' E 014°09'1312.8
2014-Sep-28 05:33N 36°37' E 013°54'1412.3
2014-Sep-28 04:24N 36°42' E 013°37'  
2014-Sep-22 16:29N 36°47' E 010°28'60 4.8
2014-Sep-22 04:12N 37°20' E 011°31'1012.0
2014-Sep-22 03:20N 37°15' E 011°43'911.8
2014-Sep-22 02:33N 37°11' E 011°53'1111.6
2014-Sep-22 01:33N 37°06' E 012°06'1211.2
2014-Sep-22 00:32N 37°01' E 012°19'1110.8
2014-Sep-21 23:33N 36°55' E 012°30'1111.4
2014-Sep-21 22:33N 36°49' E 012°42'1211.6
2014-Sep-21 21:33N 36°45' E 012°56'1211.9
2014-Sep-21 20:33N 36°40' E 013°09'1211.8
2014-Sep-21 19:33N 36°35' E 013°23'1211.7
2014-Sep-21 18:33N 36°30' E 013°35'1111.2
2014-Sep-21 17:33N 36°27' E 013°49'1111.1
2014-Sep-21 16:33N 36°26' E 014°03'1110.9
2014-Sep-21 15:33N 36°27' E 014°16'1111.0
2014-Sep-21 14:33N 36°28' E 014°30'1111.3
2014-Sep-21 13:33N 36°27' E 014°44'1111.3
2014-Sep-21 12:33N 36°27' E 014°58'1211.5
2014-Sep-21 11:33N 36°26' E 015°12'41310.0
2014-Sep-19 18:25N 37°34' E 023°42'1011.8
2014-Sep-19 17:33N 37°44' E 023°39'1110.6
2014-Sep-19 16:33N 37°55' E 023°36'7 6.8
2014-Sep-19 15:33N 38°02' E 023°36'0 0.2
2014-Sep-19 14:25N 38°02' E 023°36'0 0.0
2014-Sep-19 13:22N 38°02' E 023°36'0 0.0
2014-Sep-19 12:28N 38°02' E 023°36'  

Dump ship's entire track history